sensor_id;sensor_type;location;lat;lon;timestamp;temperature;humidity
3752;DHT22;50827;47.014;7.652;2022-11-20T00:00:17;6.40;99.90
3752;DHT22;50827;47.014;7.652;2022-11-20T00:02:44;6.40;99.90
3752;DHT22;50827;47.014;7.652;2022-11-20T00:05:11;6.30;99.90
3752;DHT22;50827;47.014;7.652;2022-11-20T00:07:37;6.30;99.90
3752;DHT22;50827;47.014;7.652;2022-11-20T00:10:04;6.40;99.90
3752;DHT22;50827;47.014;7.652;2022-11-20T00:12:31;6.30;99.90
3752;DHT22;50827;47.014;7.652;2022-11-20T00:14:58;6.30;99.90
3752;DHT22;50827;47.014;7.652;2022-11-20T00:17:25;6.40;99.90
3752;DHT22;50827;47.014;7.652;2022-11-20T00:19:52;6.30;99.90
3752;DHT22;50827;47.014;7.652;2022-11-20T00:22:18;6.30;99.90
3752;DHT22;50827;47.014;7.652;2022-11-20T00:24:45;6.40;99.90
3752;DHT22;50827;47.014;7.652;2022-11-20T00:27:11;6.40;99.90
3752;DHT22;50827;47.014;7.652;2022-11-20T00:29:38;6.40;99.90
3752;DHT22;50827;47.014;7.652;2022-11-20T00:32:05;6.50;99.90
3752;DHT22;50827;47.014;7.652;2022-11-20T00:34:31;6.40;99.90
3752;DHT22;50827;47.014;7.652;2022-11-20T00:36:58;6.30;99.90
3752;DHT22;50827;47.014;7.652;2022-11-20T00:39:25;6.30;99.90
3752;DHT22;50827;47.014;7.652;2022-11-20T00:41:51;6.30;99.90
3752;DHT22;50827;47.014;7.652;2022-11-20T00:44:18;6.20;99.90
3752;DHT22;50827;47.014;7.652;2022-11-20T00:46:45;6.20;99.90
3752;DHT22;50827;47.014;7.652;2022-11-20T00:49:11;6.10;99.90
3752;DHT22;50827;47.014;7.652;2022-11-20T00:51:38;6.10;99.90
3752;DHT22;50827;47.014;7.652;2022-11-20T00:54:05;6.10;99.90
3752;DHT22;50827;47.014;7.652;2022-11-20T00:56:31;6.10;99.90
3752;DHT22;50827;47.014;7.652;2022-11-20T00:59:00;6.10;99.90
3752;DHT22;50827;47.014;7.652;2022-11-20T01:01:27;6.00;99.90
3752;DHT22;50827;47.014;7.652;2022-11-20T01:03:57;6.10;99.90
3752;DHT22;50827;47.014;7.652;2022-11-20T01:06:26;6.10;99.90
3752;DHT22;50827;47.014;7.652;2022-11-20T01:08:59;6.10;99.90
3752;DHT22;50827;47.014;7.652;2022-11-20T01:11:28;6.10;99.90
3752;DHT22;50827;47.014;7.652;2022-11-20T01:13:57;6.10;99.90
3752;DHT22;50827;47.014;7.652;2022-11-20T01:16:35;6.00;99.90
3752;DHT22;50827;47.014;7.652;2022-11-20T01:19:05;6.10;99.90
3752;DHT22;50827;47.014;7.652;2022-11-20T01:21:35;6.10;99.90
3752;DHT22;50827;47.014;7.652;2022-11-20T01:24:03;6.10;99.90
3752;DHT22;50827;47.014;7.652;2022-11-20T01:26:32;6.10;99.90
3752;DHT22;50827;47.014;7.652;2022-11-20T01:29:00;6.10;99.90
3752;DHT22;50827;47.014;7.652;2022-11-20T01:31:29;6.00;99.90
3752;DHT22;50827;47.014;7.652;2022-11-20T01:33:58;6.10;99.90
3752;DHT22;50827;47.014;7.652;2022-11-20T01:36:28;6.10;99.90
3752;DHT22;50827;47.014;7.652;2022-11-20T01:38:57;6.10;99.90
3752;DHT22;50827;47.014;7.652;2022-11-20T01:41:26;6.20;99.90
3752;DHT22;50827;47.014;7.652;2022-11-20T01:44:13;6.20;99.90
3752;DHT22;50827;47.014;7.652;2022-11-20T01:47:07;6.30;99.90
3752;DHT22;50827;47.014;7.652;2022-11-20T01:49:51;6.20;99.90
3752;DHT22;50827;47.014;7.652;2022-11-20T01:52:41;6.20;99.90
3752;DHT22;50827;47.014;7.652;2022-11-20T01:55:16;6.20;99.90
3752;DHT22;50827;47.014;7.652;2022-11-20T01:57:45;6.20;99.90
3752;DHT22;50827;47.014;7.652;2022-11-20T02:00:16;6.10;99.90
3752;DHT22;50827;47.014;7.652;2022-11-20T02:03:00;6.20;99.90
3752;DHT22;50827;47.014;7.652;2022-11-20T02:05:32;6.20;99.90
3752;DHT22;50827;47.014;7.652;2022-11-20T02:08:03;6.20;99.90
3752;DHT22;50827;47.014;7.652;2022-11-20T02:10:31;6.20;99.90
3752;DHT22;50827;47.014;7.652;2022-11-20T02:12:58;6.20;99.90
3752;DHT22;50827;47.014;7.652;2022-11-20T02:15:44;6.20;99.90
3752;DHT22;50827;47.014;7.652;2022-11-20T02:18:14;6.30;99.90
3752;DHT22;50827;47.014;7.652;2022-11-20T02:20:44;6.30;99.90
3752;DHT22;50827;47.014;7.652;2022-11-20T02:23:31;6.30;99.90
3752;DHT22;50827;47.014;7.652;2022-11-20T02:26:02;6.30;99.90
3752;DHT22;50827;47.014;7.652;2022-11-20T02:28:30;6.30;99.90
3752;DHT22;50827;47.014;7.652;2022-11-20T02:30:57;6.30;99.90
3752;DHT22;50827;47.014;7.652;2022-11-20T02:33:24;6.30;99.90
3752;DHT22;50827;47.014;7.652;2022-11-20T02:35:51;6.30;99.90
3752;DHT22;50827;47.014;7.652;2022-11-20T02:38:17;6.40;99.90
3752;DHT22;50827;47.014;7.652;2022-11-20T02:40:44;6.40;99.90
3752;DHT22;50827;47.014;7.652;2022-11-20T02:43:11;6.30;99.90
3752;DHT22;50827;47.014;7.652;2022-11-20T02:45:38;6.40;99.90
3752;DHT22;50827;47.014;7.652;2022-11-20T02:48:06;6.40;99.90
3752;DHT22;50827;47.014;7.652;2022-11-20T02:50:35;6.40;99.90
3752;DHT22;50827;47.014;7.652;2022-11-20T02:53:02;6.40;99.90
3752;DHT22;50827;47.014;7.652;2022-11-20T02:55:29;6.40;99.90
3752;DHT22;50827;47.014;7.652;2022-11-20T02:57:56;6.40;99.90
3752;DHT22;50827;47.014;7.652;2022-11-20T03:00:23;6.40;99.90
3752;DHT22;50827;47.014;7.652;2022-11-20T03:02:50;6.40;99.90
3752;DHT22;50827;47.014;7.652;2022-11-20T03:05:16;6.50;99.90
3752;DHT22;50827;47.014;7.652;2022-11-20T03:07:43;6.50;99.90
3752;DHT22;50827;47.014;7.652;2022-11-20T03:10:10;6.50;99.90
3752;DHT22;50827;47.014;7.652;2022-11-20T03:12:38;6.50;99.90
3752;DHT22;50827;47.014;7.652;2022-11-20T03:15:06;6.50;99.90
3752;DHT22;50827;47.014;7.652;2022-11-20T03:17:32;6.50;99.90
3752;DHT22;50827;47.014;7.652;2022-11-20T03:19:59;6.60;99.90
3752;DHT22;50827;47.014;7.652;2022-11-20T03:22:29;6.50;99.90
3752;DHT22;50827;47.014;7.652;2022-11-20T03:24:56;6.40;99.90
3752;DHT22;50827;47.014;7.652;2022-11-20T03:27:23;6.40;99.90
3752;DHT22;50827;47.014;7.652;2022-11-20T03:29:49;6.40;99.90
3752;DHT22;50827;47.014;7.652;2022-11-20T03:32:16;6.40;99.90
3752;DHT22;50827;47.014;7.652;2022-11-20T03:34:43;6.40;99.90
3752;DHT22;50827;47.014;7.652;2022-11-20T03:37:09;6.50;99.90
3752;DHT22;50827;47.014;7.652;2022-11-20T03:39:36;6.50;99.90
3752;DHT22;50827;47.014;7.652;2022-11-20T03:42:03;6.60;99.90
3752;DHT22;50827;47.014;7.652;2022-11-20T03:44:49;6.60;99.90
3752;DHT22;50827;47.014;7.652;2022-11-20T03:47:16;6.70;99.90
3752;DHT22;50827;47.014;7.652;2022-11-20T03:49:43;6.70;99.90
3752;DHT22;50827;47.014;7.652;2022-11-20T03:52:09;6.70;99.90
3752;DHT22;50827;47.014;7.652;2022-11-20T03:54:36;6.70;99.90
3752;DHT22;50827;47.014;7.652;2022-11-20T03:57:03;6.60;99.90
3752;DHT22;50827;47.014;7.652;2022-11-20T03:59:29;6.70;99.90
3752;DHT22;50827;47.014;7.652;2022-11-20T04:01:56;6.70;99.90
3752;DHT22;50827;47.014;7.652;2022-11-20T04:04:23;6.70;99.90
3752;DHT22;50827;47.014;7.652;2022-11-20T04:06:49;6.70;99.90
3752;DHT22;50827;47.014;7.652;2022-11-20T04:09:16;6.70;99.90
3752;DHT22;50827;47.014;7.652;2022-11-20T04:11:43;6.70;99.90
3752;DHT22;50827;47.014;7.652;2022-11-20T04:14:14;6.70;99.90
3752;DHT22;50827;47.014;7.652;2022-11-20T04:16:42;6.70;99.90
3752;DHT22;50827;47.014;7.652;2022-11-20T04:19:11;6.70;99.90
3752;DHT22;50827;47.014;7.652;2022-11-20T04:21:39;6.70;99.90
3752;DHT22;50827;47.014;7.652;2022-11-20T04:24:07;6.60;99.90
3752;DHT22;50827;47.014;7.652;2022-11-20T04:26:34;6.60;99.90
3752;DHT22;50827;47.014;7.652;2022-11-20T04:29:01;6.70;99.90
3752;DHT22;50827;47.014;7.652;2022-11-20T04:31:30;6.60;99.90
3752;DHT22;50827;47.014;7.652;2022-11-20T04:34:02;6.50;99.90
3752;DHT22;50827;47.014;7.652;2022-11-20T04:36:29;6.50;99.90
3752;DHT22;50827;47.014;7.652;2022-11-20T04:38:58;6.50;99.90
3752;DHT22;50827;47.014;7.652;2022-11-20T04:41:28;6.60;99.90
3752;DHT22;50827;47.014;7.652;2022-11-20T04:43:59;6.60;99.90
3752;DHT22;50827;47.014;7.652;2022-11-20T04:46:30;6.60;99.90
3752;DHT22;50827;47.014;7.652;2022-11-20T04:48:58;6.50;99.90
3752;DHT22;50827;47.014;7.652;2022-11-20T04:51:26;6.40;99.90
3752;DHT22;50827;47.014;7.652;2022-11-20T04:53:53;6.40;99.90
3752;DHT22;50827;47.014;7.652;2022-11-20T04:56:19;6.30;99.90
3752;DHT22;50827;47.014;7.652;2022-11-20T04:58:46;6.40;99.90
3752;DHT22;50827;47.014;7.652;2022-11-20T05:01:19;6.30;99.90
3752;DHT22;50827;47.014;7.652;2022-11-20T05:03:47;6.40;99.90
3752;DHT22;50827;47.014;7.652;2022-11-20T05:06:16;6.40;99.90
3752;DHT22;50827;47.014;7.652;2022-11-20T05:08:43;6.50;99.90
3752;DHT22;50827;47.014;7.652;2022-11-20T05:11:14;6.50;99.90
3752;DHT22;50827;47.014;7.652;2022-11-20T05:13:42;6.40;99.90
3752;DHT22;50827;47.014;7.652;2022-11-20T05:16:23;6.50;99.90
3752;DHT22;50827;47.014;7.652;2022-11-20T05:18:52;6.50;99.90
3752;DHT22;50827;47.014;7.652;2022-11-20T05:21:19;6.60;99.90
3752;DHT22;50827;47.014;7.652;2022-11-20T05:23:46;6.60;99.90
3752;DHT22;50827;47.014;7.652;2022-11-20T05:26:21;6.60;99.90
3752;DHT22;50827;47.014;7.652;2022-11-20T05:28:49;6.70;99.90
3752;DHT22;50827;47.014;7.652;2022-11-20T05:31:22;6.60;99.90
3752;DHT22;50827;47.014;7.652;2022-11-20T05:33:54;6.60;99.90
3752;DHT22;50827;47.014;7.652;2022-11-20T05:36:21;6.60;99.90
3752;DHT22;50827;47.014;7.652;2022-11-20T05:38:48;6.60;99.90
3752;DHT22;50827;47.014;7.652;2022-11-20T05:41:18;6.60;99.90
3752;DHT22;50827;47.014;7.652;2022-11-20T05:43:48;6.60;99.90
3752;DHT22;50827;47.014;7.652;2022-11-20T05:46:17;6.60;99.90
3752;DHT22;50827;47.014;7.652;2022-11-20T05:48:50;6.70;99.90
3752;DHT22;50827;47.014;7.652;2022-11-20T05:51:18;6.60;99.90
3752;DHT22;50827;47.014;7.652;2022-11-20T05:53:45;6.60;99.90
3752;DHT22;50827;47.014;7.652;2022-11-20T05:56:19;6.60;99.90
3752;DHT22;50827;47.014;7.652;2022-11-20T05:58:47;6.60;99.90
3752;DHT22;50827;47.014;7.652;2022-11-20T06:01:19;6.50;99.90
3752;DHT22;50827;47.014;7.652;2022-11-20T06:03:47;6.50;99.90
3752;DHT22;50827;47.014;7.652;2022-11-20T06:06:15;6.40;99.90
3752;DHT22;50827;47.014;7.652;2022-11-20T06:08:43;6.40;99.90
3752;DHT22;50827;47.014;7.652;2022-11-20T06:11:12;6.40;99.90
3752;DHT22;50827;47.014;7.652;2022-11-20T06:13:39;6.40;99.90
3752;DHT22;50827;47.014;7.652;2022-11-20T06:16:11;6.40;99.90
3752;DHT22;50827;47.014;7.652;2022-11-20T06:18:38;6.40;99.90
3752;DHT22;50827;47.014;7.652;2022-11-20T06:21:11;6.40;99.90
3752;DHT22;50827;47.014;7.652;2022-11-20T06:23:38;6.50;99.90
3752;DHT22;50827;47.014;7.652;2022-11-20T06:26:10;6.40;99.90
3752;DHT22;50827;47.014;7.652;2022-11-20T06:28:39;6.50;99.90
3752;DHT22;50827;47.014;7.652;2022-11-20T06:31:07;6.50;99.90
3752;DHT22;50827;47.014;7.652;2022-11-20T06:33:34;6.60;99.90
3752;DHT22;50827;47.014;7.652;2022-11-20T06:36:01;6.60;99.90
3752;DHT22;50827;47.014;7.652;2022-11-20T06:38:36;6.60;99.90
3752;DHT22;50827;47.014;7.652;2022-11-20T06:41:04;6.60;99.90
3752;DHT22;50827;47.014;7.652;2022-11-20T06:43:31;6.60;99.90
3752;DHT22;50827;47.014;7.652;2022-11-20T06:45:58;6.70;99.90
3752;DHT22;50827;47.014;7.652;2022-11-20T06:48:26;6.70;99.90
3752;DHT22;50827;47.014;7.652;2022-11-20T06:50:54;6.60;99.90
3752;DHT22;50827;47.014;7.652;2022-11-20T06:53:22;6.60;99.90
3752;DHT22;50827;47.014;7.652;2022-11-20T06:55:50;6.60;99.90
3752;DHT22;50827;47.014;7.652;2022-11-20T06:58:17;6.60;99.90
3752;DHT22;50827;47.014;7.652;2022-11-20T07:00:44;6.50;99.90
3752;DHT22;50827;47.014;7.652;2022-11-20T07:03:11;6.50;99.90
3752;DHT22;50827;47.014;7.652;2022-11-20T07:05:38;6.50;99.90
3752;DHT22;50827;47.014;7.652;2022-11-20T07:08:05;6.50;99.90
3752;DHT22;50827;47.014;7.652;2022-11-20T07:10:32;6.60;99.90
3752;DHT22;50827;47.014;7.652;2022-11-20T07:13:00;6.60;99.90
3752;DHT22;50827;47.014;7.652;2022-11-20T07:15:27;6.60;99.90
3752;DHT22;50827;47.014;7.652;2022-11-20T07:17:54;6.70;99.90
3752;DHT22;50827;47.014;7.652;2022-11-20T07:20:21;6.70;99.90
3752;DHT22;50827;47.014;7.652;2022-11-20T07:22:54;6.70;99.90
3752;DHT22;50827;47.014;7.652;2022-11-20T07:25:22;6.70;99.90
3752;DHT22;50827;47.014;7.652;2022-11-20T07:27:49;6.70;99.90
3752;DHT22;50827;47.014;7.652;2022-11-20T07:30:16;6.70;99.90
3752;DHT22;50827;47.014;7.652;2022-11-20T07:32:50;6.70;99.90
3752;DHT22;50827;47.014;7.652;2022-11-20T07:35:17;6.70;99.90
3752;DHT22;50827;47.014;7.652;2022-11-20T07:37:43;6.70;99.90
3752;DHT22;50827;47.014;7.652;2022-11-20T07:40:12;6.70;99.90
3752;DHT22;50827;47.014;7.652;2022-11-20T07:42:50;6.80;99.90
3752;DHT22;50827;47.014;7.652;2022-11-20T07:45:19;6.80;99.90
3752;DHT22;50827;47.014;7.652;2022-11-20T07:47:47;6.90;99.90
3752;DHT22;50827;47.014;7.652;2022-11-20T07:50:14;6.90;99.90
3752;DHT22;50827;47.014;7.652;2022-11-20T07:52:41;6.90;99.90
3752;DHT22;50827;47.014;7.652;2022-11-20T07:55:09;6.90;99.90
3752;DHT22;50827;47.014;7.652;2022-11-20T07:57:36;7.00;99.90
3752;DHT22;50827;47.014;7.652;2022-11-20T08:00:04;7.00;99.90
3752;DHT22;50827;47.014;7.652;2022-11-20T08:02:31;7.00;99.90
3752;DHT22;50827;47.014;7.652;2022-11-20T08:04:59;6.90;99.90
3752;DHT22;50827;47.014;7.652;2022-11-20T08:07:26;6.90;99.90
3752;DHT22;50827;47.014;7.652;2022-11-20T08:09:52;6.90;99.90
3752;DHT22;50827;47.014;7.652;2022-11-20T08:12:20;6.90;99.90
3752;DHT22;50827;47.014;7.652;2022-11-20T08:15:06;6.90;99.90
3752;DHT22;50827;47.014;7.652;2022-11-20T08:17:38;6.80;99.90
3752;DHT22;50827;47.014;7.652;2022-11-20T08:20:05;6.90;99.90
3752;DHT22;50827;47.014;7.652;2022-11-20T08:22:32;6.90;99.90
3752;DHT22;50827;47.014;7.652;2022-11-20T08:24:59;6.90;99.90
3752;DHT22;50827;47.014;7.652;2022-11-20T08:27:25;6.90;99.90
3752;DHT22;50827;47.014;7.652;2022-11-20T08:29:59;7.00;99.90
3752;DHT22;50827;47.014;7.652;2022-11-20T08:32:25;7.10;99.90
3752;DHT22;50827;47.014;7.652;2022-11-20T08:34:55;7.00;99.90
3752;DHT22;50827;47.014;7.652;2022-11-20T08:37:25;7.10;99.90
3752;DHT22;50827;47.014;7.652;2022-11-20T08:39:55;7.10;99.90
3752;DHT22;50827;47.014;7.652;2022-11-20T08:42:25;7.20;99.90
3752;DHT22;50827;47.014;7.652;2022-11-20T08:44:52;7.20;99.90
3752;DHT22;50827;47.014;7.652;2022-11-20T08:47:19;7.20;99.90
3752;DHT22;50827;47.014;7.652;2022-11-20T08:49:45;7.30;99.90
3752;DHT22;50827;47.014;7.652;2022-11-20T08:52:12;7.40;99.90
3752;DHT22;50827;47.014;7.652;2022-11-20T08:54:38;7.40;99.90
3752;DHT22;50827;47.014;7.652;2022-11-20T08:57:05;7.40;99.90
3752;DHT22;50827;47.014;7.652;2022-11-20T08:59:32;7.40;99.90
3752;DHT22;50827;47.014;7.652;2022-11-20T09:02:19;7.50;99.90
3752;DHT22;50827;47.014;7.652;2022-11-20T09:04:45;7.50;99.90
3752;DHT22;50827;47.014;7.652;2022-11-20T09:07:12;7.40;99.90
3752;DHT22;50827;47.014;7.652;2022-11-20T09:09:39;7.40;99.90
3752;DHT22;50827;47.014;7.652;2022-11-20T09:12:05;7.50;99.90
3752;DHT22;50827;47.014;7.652;2022-11-20T09:14:32;7.50;99.90
3752;DHT22;50827;47.014;7.652;2022-11-20T09:17:00;7.50;99.90
3752;DHT22;50827;47.014;7.652;2022-11-20T09:19:26;7.40;99.90
3752;DHT22;50827;47.014;7.652;2022-11-20T09:22:06;7.30;99.90
3752;DHT22;50827;47.014;7.652;2022-11-20T09:24:33;7.40;99.90
3752;DHT22;50827;47.014;7.652;2022-11-20T09:27:02;7.30;99.90
3752;DHT22;50827;47.014;7.652;2022-11-20T09:29:29;7.40;99.90
3752;DHT22;50827;47.014;7.652;2022-11-20T09:31:56;7.40;99.90
3752;DHT22;50827;47.014;7.652;2022-11-20T09:34:23;7.30;99.90
3752;DHT22;50827;47.014;7.652;2022-11-20T09:36:52;7.20;99.90
3752;DHT22;50827;47.014;7.652;2022-11-20T09:39:19;7.20;99.90
3752;DHT22;50827;47.014;7.652;2022-11-20T09:42:04;7.20;99.90
3752;DHT22;50827;47.014;7.652;2022-11-20T09:44:45;7.30;99.90
3752;DHT22;50827;47.014;7.652;2022-11-20T09:47:26;7.30;99.90
3752;DHT22;50827;47.014;7.652;2022-11-20T09:55:42;7.30;99.90
3752;DHT22;50827;47.014;7.652;2022-11-20T09:58:20;7.40;99.90
3752;DHT22;50827;47.014;7.652;2022-11-20T10:00:52;7.40;99.90
3752;DHT22;50827;47.014;7.652;2022-11-20T10:03:35;7.40;99.90
3752;DHT22;50827;47.014;7.652;2022-11-20T10:06:05;7.50;99.90
3752;DHT22;50827;47.014;7.652;2022-11-20T10:08:44;7.60;99.90
3752;DHT22;50827;47.014;7.652;2022-11-20T10:16:49;7.80;99.90
3752;DHT22;50827;47.014;7.652;2022-11-20T10:19:52;7.90;99.90
3752;DHT22;50827;47.014;7.652;2022-11-20T10:30:30;8.00;99.90
3752;DHT22;50827;47.014;7.652;2022-11-20T10:33:06;8.10;99.90
3752;DHT22;50827;47.014;7.652;2022-11-20T10:35:41;8.10;99.90
3752;DHT22;50827;47.014;7.652;2022-11-20T10:38:20;8.20;99.90
3752;DHT22;50827;47.014;7.652;2022-11-20T10:40:52;8.20;99.90
3752;DHT22;50827;47.014;7.652;2022-11-20T10:43:40;8.20;99.90
3752;DHT22;50827;47.014;7.652;2022-11-20T10:46:17;8.20;99.90
3752;DHT22;50827;47.014;7.652;2022-11-20T10:48:46;8.20;99.90
3752;DHT22;50827;47.014;7.652;2022-11-20T10:51:26;8.20;99.90
3752;DHT22;50827;47.014;7.652;2022-11-20T10:56:50;8.20;99.90
3752;DHT22;50827;47.014;7.652;2022-11-20T11:02:18;8.20;99.90
3752;DHT22;50827;47.014;7.652;2022-11-20T11:04:47;8.30;99.90
3752;DHT22;50827;47.014;7.652;2022-11-20T11:09:52;8.40;99.90
3752;DHT22;50827;47.014;7.652;2022-11-20T11:12:21;8.40;99.90
3752;DHT22;50827;47.014;7.652;2022-11-20T11:14:50;8.50;99.90
3752;DHT22;50827;47.014;7.652;2022-11-20T11:17:31;8.50;99.90
3752;DHT22;50827;47.014;7.652;2022-11-20T11:22:33;8.50;99.90
3752;DHT22;50827;47.014;7.652;2022-11-20T11:25:00;8.50;99.90
3752;DHT22;50827;47.014;7.652;2022-11-20T11:27:27;8.60;99.90
3752;DHT22;50827;47.014;7.652;2022-11-20T11:30:15;8.60;99.90
3752;DHT22;50827;47.014;7.652;2022-11-20T11:32:43;8.60;99.90
3752;DHT22;50827;47.014;7.652;2022-11-20T11:35:27;8.60;99.90
3752;DHT22;50827;47.014;7.652;2022-11-20T11:38:03;8.60;99.90
3752;DHT22;50827;47.014;7.652;2022-11-20T11:40:32;8.60;99.90
3752;DHT22;50827;47.014;7.652;2022-11-20T11:43:05;8.60;99.90
3752;DHT22;50827;47.014;7.652;2022-11-20T11:45:54;8.60;99.90
3752;DHT22;50827;47.014;7.652;2022-11-20T11:48:21;8.60;99.90
3752;DHT22;50827;47.014;7.652;2022-11-20T11:50:49;8.50;99.90
3752;DHT22;50827;47.014;7.652;2022-11-20T11:53:21;8.60;99.90
3752;DHT22;50827;47.014;7.652;2022-11-20T11:55:56;8.60;99.90
3752;DHT22;50827;47.014;7.652;2022-11-20T12:01:40;8.70;99.90
3752;DHT22;50827;47.014;7.652;2022-11-20T12:06:39;8.80;99.90
3752;DHT22;50827;47.014;7.652;2022-11-20T12:09:11;8.80;99.90
3752;DHT22;50827;47.014;7.652;2022-11-20T12:14:40;8.90;99.90
3752;DHT22;50827;47.014;7.652;2022-11-20T12:17:13;8.90;99.90
3752;DHT22;50827;47.014;7.652;2022-11-20T12:19:40;8.90;99.90
3752;DHT22;50827;47.014;7.652;2022-11-20T12:24:56;8.80;99.90
3752;DHT22;50827;47.014;7.652;2022-11-20T12:30:11;8.70;99.90
3752;DHT22;50827;47.014;7.652;2022-11-20T12:43:51;9.00;99.90
3752;DHT22;50827;47.014;7.652;2022-11-20T12:46:46;8.90;99.90
3752;DHT22;50827;47.014;7.652;2022-11-20T12:49:46;8.90;99.90
3752;DHT22;50827;47.014;7.652;2022-11-20T12:52:51;8.80;99.90
3752;DHT22;50827;47.014;7.652;2022-11-20T12:58:40;9.00;99.90
3752;DHT22;50827;47.014;7.652;2022-11-20T13:07:08;9.00;99.90
3752;DHT22;50827;47.014;7.652;2022-11-20T13:09:48;9.00;99.90
3752;DHT22;50827;47.014;7.652;2022-11-20T13:12:40;9.00;99.90
3752;DHT22;50827;47.014;7.652;2022-11-20T13:18:00;9.00;99.90
3752;DHT22;50827;47.014;7.652;2022-11-20T13:20:32;9.10;99.90
3752;DHT22;50827;47.014;7.652;2022-11-20T13:22:59;9.10;99.90
3752;DHT22;50827;47.014;7.652;2022-11-20T13:25:31;9.20;99.90
3752;DHT22;50827;47.014;7.652;2022-11-20T13:28:02;9.20;99.90
3752;DHT22;50827;47.014;7.652;2022-11-20T13:30:30;9.30;99.90
3752;DHT22;50827;47.014;7.652;2022-11-20T13:33:09;9.40;99.90
3752;DHT22;50827;47.014;7.652;2022-11-20T13:35:56;9.40;99.90
3752;DHT22;50827;47.014;7.652;2022-11-20T13:38:25;9.30;99.90
3752;DHT22;50827;47.014;7.652;2022-11-20T13:41:01;9.30;99.90
3752;DHT22;50827;47.014;7.652;2022-11-20T13:43:52;9.40;99.90
3752;DHT22;50827;47.014;7.652;2022-11-20T13:46:18;9.40;99.90
3752;DHT22;50827;47.014;7.652;2022-11-20T13:48:51;9.40;99.90
3752;DHT22;50827;47.014;7.652;2022-11-20T13:56:58;9.20;99.90
3752;DHT22;50827;47.014;7.652;2022-11-20T13:59:50;9.20;99.90
3752;DHT22;50827;47.014;7.652;2022-11-20T14:02:20;9.20;99.90
3752;DHT22;50827;47.014;7.652;2022-11-20T14:04:51;9.30;99.90
3752;DHT22;50827;47.014;7.652;2022-11-20T14:07:21;9.20;99.90
3752;DHT22;50827;47.014;7.652;2022-11-20T14:09:54;9.20;99.90
3752;DHT22;50827;47.014;7.652;2022-11-20T14:12:27;9.30;99.90
3752;DHT22;50827;47.014;7.652;2022-11-20T14:14:54;9.30;99.90
3752;DHT22;50827;47.014;7.652;2022-11-20T14:17:31;9.30;99.90
3752;DHT22;50827;47.014;7.652;2022-11-20T14:20:12;9.20;99.90
3752;DHT22;50827;47.014;7.652;2022-11-20T14:22:48;9.30;99.90
3752;DHT22;50827;47.014;7.652;2022-11-20T14:27:44;9.20;99.90
3752;DHT22;50827;47.014;7.652;2022-11-20T14:30:14;9.20;99.90
3752;DHT22;50827;47.014;7.652;2022-11-20T14:32:43;9.20;99.90
3752;DHT22;50827;47.014;7.652;2022-11-20T14:37:52;9.10;99.90
3752;DHT22;50827;47.014;7.652;2022-11-20T14:40:33;9.10;99.90
3752;DHT22;50827;47.014;7.652;2022-11-20T14:43:16;9.10;99.90
3752;DHT22;50827;47.014;7.652;2022-11-20T14:45:46;9.10;99.90
3752;DHT22;50827;47.014;7.652;2022-11-20T14:48:15;9.10;99.90
3752;DHT22;50827;47.014;7.652;2022-11-20T14:50:42;9.20;99.90
3752;DHT22;50827;47.014;7.652;2022-11-20T14:53:09;9.10;99.90
3752;DHT22;50827;47.014;7.652;2022-11-20T14:55:37;9.10;99.90
3752;DHT22;50827;47.014;7.652;2022-11-20T14:58:06;9.10;99.90
3752;DHT22;50827;47.014;7.652;2022-11-20T15:00:34;9.10;99.90
3752;DHT22;50827;47.014;7.652;2022-11-20T15:03:01;9.10;99.90
3752;DHT22;50827;47.014;7.652;2022-11-20T15:05:47;9.10;99.90
3752;DHT22;50827;47.014;7.652;2022-11-20T15:08:16;9.00;99.90
3752;DHT22;50827;47.014;7.652;2022-11-20T15:10:48;9.00;99.90
3752;DHT22;50827;47.014;7.652;2022-11-20T15:13:30;9.00;99.90
3752;DHT22;50827;47.014;7.652;2022-11-20T15:15:59;9.00;99.90
3752;DHT22;50827;47.014;7.652;2022-11-20T15:18:32;8.90;99.90
3752;DHT22;50827;47.014;7.652;2022-11-20T15:21:06;8.90;99.90
3752;DHT22;50827;47.014;7.652;2022-11-20T15:23:37;8.90;99.90
3752;DHT22;50827;47.014;7.652;2022-11-20T15:26:05;8.90;99.90
3752;DHT22;50827;47.014;7.652;2022-11-20T15:28:43;8.80;99.90
3752;DHT22;50827;47.014;7.652;2022-11-20T15:31:15;8.70;99.90
3752;DHT22;50827;47.014;7.652;2022-11-20T15:33:42;8.70;99.90
3752;DHT22;50827;47.014;7.652;2022-11-20T15:36:09;8.70;99.90
3752;DHT22;50827;47.014;7.652;2022-11-20T15:38:36;8.70;99.90
3752;DHT22;50827;47.014;7.652;2022-11-20T15:41:03;8.70;99.90
3752;DHT22;50827;47.014;7.652;2022-11-20T15:43:30;8.70;99.90
3752;DHT22;50827;47.014;7.652;2022-11-20T15:46:00;8.60;99.90
3752;DHT22;50827;47.014;7.652;2022-11-20T15:48:34;8.60;99.90
3752;DHT22;50827;47.014;7.652;2022-11-20T15:53:54;8.40;99.90
3752;DHT22;50827;47.014;7.652;2022-11-20T15:56:21;8.50;99.90
3752;DHT22;50827;47.014;7.652;2022-11-20T15:58:49;8.40;99.90
3752;DHT22;50827;47.014;7.652;2022-11-20T16:01:21;8.40;99.90
3752;DHT22;50827;47.014;7.652;2022-11-20T16:03:48;8.40;99.90
3752;DHT22;50827;47.014;7.652;2022-11-20T16:06:15;8.40;99.90
3752;DHT22;50827;47.014;7.652;2022-11-20T16:08:45;8.40;99.90
3752;DHT22;50827;47.014;7.652;2022-11-20T16:11:14;8.30;99.90
3752;DHT22;50827;47.014;7.652;2022-11-20T16:13:41;8.30;99.90
3752;DHT22;50827;47.014;7.652;2022-11-20T16:16:30;8.30;99.90
3752;DHT22;50827;47.014;7.652;2022-11-20T16:18:58;8.20;99.90
3752;DHT22;50827;47.014;7.652;2022-11-20T16:21:26;8.20;99.90
3752;DHT22;50827;47.014;7.652;2022-11-20T16:24:03;8.20;99.90
3752;DHT22;50827;47.014;7.652;2022-11-20T16:26:31;8.20;99.90
3752;DHT22;50827;47.014;7.652;2022-11-20T16:28:59;8.20;99.90
3752;DHT22;50827;47.014;7.652;2022-11-20T16:31:26;8.20;99.90
3752;DHT22;50827;47.014;7.652;2022-11-20T16:33:55;8.20;99.90
3752;DHT22;50827;47.014;7.652;2022-11-20T16:36:24;8.10;99.90
3752;DHT22;50827;47.014;7.652;2022-11-20T16:38:59;8.20;99.90
3752;DHT22;50827;47.014;7.652;2022-11-20T16:41:31;8.10;99.90
3752;DHT22;50827;47.014;7.652;2022-11-20T16:44:00;8.10;99.90
3752;DHT22;50827;47.014;7.652;2022-11-20T16:46:29;8.10;99.90
3752;DHT22;50827;47.014;7.652;2022-11-20T16:49:01;8.10;99.90
3752;DHT22;50827;47.014;7.652;2022-11-20T16:51:30;8.10;99.90
3752;DHT22;50827;47.014;7.652;2022-11-20T16:54:01;8.00;99.90
3752;DHT22;50827;47.014;7.652;2022-11-20T16:56:28;8.00;99.90
3752;DHT22;50827;47.014;7.652;2022-11-20T16:58:56;8.10;99.90
3752;DHT22;50827;47.014;7.652;2022-11-20T17:01:24;8.00;99.90
3752;DHT22;50827;47.014;7.652;2022-11-20T17:04:03;8.00;99.90
3752;DHT22;50827;47.014;7.652;2022-11-20T17:06:32;8.00;99.90
3752;DHT22;50827;47.014;7.652;2022-11-20T17:08:59;8.10;99.90
3752;DHT22;50827;47.014;7.652;2022-11-20T17:11:27;8.00;99.90
3752;DHT22;50827;47.014;7.652;2022-11-20T17:13:55;8.00;99.90
3752;DHT22;50827;47.014;7.652;2022-11-20T17:16:23;7.90;99.90
3752;DHT22;50827;47.014;7.652;2022-11-20T17:18:50;8.00;99.90
3752;DHT22;50827;47.014;7.652;2022-11-20T17:21:25;7.90;99.90
3752;DHT22;50827;47.014;7.652;2022-11-20T17:23:52;8.00;99.90
3752;DHT22;50827;47.014;7.652;2022-11-20T17:26:20;7.90;99.90
3752;DHT22;50827;47.014;7.652;2022-11-20T17:28:56;7.90;99.90
3752;DHT22;50827;47.014;7.652;2022-11-20T17:31:26;7.80;99.90
3752;DHT22;50827;47.014;7.652;2022-11-20T17:33:53;7.80;99.90
3752;DHT22;50827;47.014;7.652;2022-11-20T17:36:20;7.70;99.90
3752;DHT22;50827;47.014;7.652;2022-11-20T17:38:47;7.80;99.90
3752;DHT22;50827;47.014;7.652;2022-11-20T17:41:16;7.80;99.90
3752;DHT22;50827;47.014;7.652;2022-11-20T17:43:44;7.80;99.90